sensor_id;sensor_type;location;lat;lon;timestamp;pressure;altitude;pressure_sealevel;temperature;humidity
69574;BME280;62840;52.366;5.980;2023-07-08T00:01:24;101800.88;;;19.19;56.75
69574;BME280;62840;52.366;5.980;2023-07-08T00:03:50;101793.09;;;19.16;57.07
69574;BME280;62840;52.366;5.980;2023-07-08T00:06:18;101797.66;;;19.15;56.98
69574;BME280;62840;52.366;5.980;2023-07-08T00:08:46;101795.44;;;19.11;57.38
69574;BME280;62840;52.366;5.980;2023-07-08T00:11:13;101781.22;;;19.09;57.26
69574;BME280;62840;52.366;5.980;2023-07-08T00:13:43;101788.47;;;19.08;57.28
69574;BME280;62840;52.366;5.980;2023-07-08T00:16:10;101778.81;;;19.06;57.60
69574;BME280;62840;52.366;5.980;2023-07-08T00:18:37;101784.41;;;19.04;57.55
69574;BME280;62840;52.366;5.980;2023-07-08T00:21:08;101780.13;;;19.02;57.34
69574;BME280;62840;52.366;5.980;2023-07-08T00:23:35;101783.84;;;19.01;57.40
69574;BME280;62840;52.366;5.980;2023-07-08T00:26:00;101782.47;;;18.96;57.48
69574;BME280;62840;52.366;5.980;2023-07-08T00:28:26;101780.09;;;18.93;57.81
69574;BME280;62840;52.366;5.980;2023-07-08T00:30:55;101777.53;;;18.92;57.65
69574;BME280;62840;52.366;5.980;2023-07-08T00:33:21;101772.28;;;18.90;57.60
69574;BME280;62840;52.366;5.980;2023-07-08T00:35:46;101775.16;;;18.89;57.89
69574;BME280;62840;52.366;5.980;2023-07-08T00:38:14;101768.38;;;18.85;57.99
69574;BME280;62840;52.366;5.980;2023-07-08T00:40:50;101769.84;;;18.79;57.93
69574;BME280;62840;52.366;5.980;2023-07-08T00:43:21;101773.25;;;18.81;57.86
69574;BME280;62840;52.366;5.980;2023-07-08T00:46:16;101772.72;;;18.78;58.11
69574;BME280;62840;52.366;5.980;2023-07-08T00:48:55;101768.50;;;18.75;58.26
69574;BME280;62840;52.366;5.980;2023-07-08T00:51:25;101763.38;;;18.72;58.36
69574;BME280;62840;52.366;5.980;2023-07-08T00:53:51;101766.25;;;18.70;58.07
69574;BME280;62840;52.366;5.980;2023-07-08T00:56:22;101752.91;;;18.69;58.07
69574;BME280;62840;52.366;5.980;2023-07-08T00:58:55;101755.22;;;18.64;58.53
69574;BME280;62840;52.366;5.980;2023-07-08T01:01:29;101757.22;;;18.62;58.61
69574;BME280;62840;52.366;5.980;2023-07-08T01:04:12;101749.59;;;18.57;58.41
69574;BME280;62840;52.366;5.980;2023-07-08T01:06:47;101747.88;;;18.56;58.24
69574;BME280;62840;52.366;5.980;2023-07-08T01:09:18;101745.34;;;18.54;58.34
69574;BME280;62840;52.366;5.980;2023-07-08T01:11:45;101738.38;;;18.52;58.24
69574;BME280;62840;52.366;5.980;2023-07-08T01:14:12;101738.56;;;18.50;58.52
69574;BME280;62840;52.366;5.980;2023-07-08T01:16:48;101738.56;;;18.50;58.32
69574;BME280;62840;52.366;5.980;2023-07-08T01:19:17;101741.41;;;18.49;58.47
69574;BME280;62840;52.366;5.980;2023-07-08T01:21:58;101745.97;;;18.48;58.63
69574;BME280;62840;52.366;5.980;2023-07-08T01:24:24;101742.56;;;18.46;58.43
69574;BME280;62840;52.366;5.980;2023-07-08T01:26:51;101737.16;;;18.46;58.72
69574;BME280;62840;52.366;5.980;2023-07-08T01:29:17;101737.31;;;18.45;58.55
69574;BME280;62840;52.366;5.980;2023-07-08T01:31:43;101742.91;;;18.43;58.78
69574;BME280;62840;52.366;5.980;2023-07-08T01:34:10;101746.59;;;18.42;58.56
69574;BME280;62840;52.366;5.980;2023-07-08T01:36:39;101732.56;;;18.39;58.75
69574;BME280;62840;52.366;5.980;2023-07-08T01:39:14;101731.00;;;18.36;59.12
69574;BME280;62840;52.366;5.980;2023-07-08T01:41:43;101734.72;;;18.35;59.10
69574;BME280;62840;52.366;5.980;2023-07-08T01:44:20;101727.59;;;18.34;59.05
69574;BME280;62840;52.366;5.980;2023-07-08T01:46:47;101722.53;;;18.31;59.03
69574;BME280;62840;52.366;5.980;2023-07-08T01:49:15;101715.72;;;18.27;59.22
69574;BME280;62840;52.366;5.980;2023-07-08T01:51:41;101725.69;;;18.26;59.19
69574;BME280;62840;52.366;5.980;2023-07-08T01:54:07;101710.66;;;18.24;59.18
69574;BME280;62840;52.366;5.980;2023-07-08T01:56:35;101712.66;;;18.22;59.04
69574;BME280;62840;52.366;5.980;2023-07-08T01:59:01;101705.03;;;18.17;59.42
69574;BME280;62840;52.366;5.980;2023-07-08T02:01:27;101706.19;;;18.14;59.22
69574;BME280;62840;52.366;5.980;2023-07-08T02:03:52;101696.00;;;18.08;59.29
69574;BME280;62840;52.366;5.980;2023-07-08T02:06:18;101694.31;;;18.07;59.75
69574;BME280;62840;52.366;5.980;2023-07-08T02:08:44;101690.94;;;18.05;59.87
69574;BME280;62840;52.366;5.980;2023-07-08T02:11:10;101694.63;;;18.04;59.90
69574;BME280;62840;52.366;5.980;2023-07-08T02:13:38;101698.34;;;18.03;59.95
69574;BME280;62840;52.366;5.980;2023-07-08T02:16:06;101689.53;;;18.01;59.59
69574;BME280;62840;52.366;5.980;2023-07-08T02:18:32;101685.13;;;18.00;59.92
69574;BME280;62840;52.366;5.980;2023-07-08T02:20:58;101686.13;;;17.99;59.40
69574;BME280;62840;52.366;5.980;2023-07-08T02:23:24;101686.13;;;17.99;60.06
69574;BME280;62840;52.366;5.980;2023-07-08T02:25:51;101685.44;;;17.97;60.13
69574;BME280;62840;52.366;5.980;2023-07-08T02:28:17;101684.75;;;17.95;59.68
69574;BME280;62840;52.366;5.980;2023-07-08T02:30:45;101683.06;;;17.94;60.01
69574;BME280;62840;52.366;5.980;2023-07-08T02:33:11;101681.34;;;17.93;59.63
69574;BME280;62840;52.366;5.980;2023-07-08T02:35:37;101674.97;;;17.94;59.53
69574;BME280;62840;52.366;5.980;2023-07-08T02:38:02;101674.28;;;17.92;60.01
69574;BME280;62840;52.366;5.980;2023-07-08T02:40:28;101671.72;;;17.90;59.71
69574;BME280;62840;52.366;5.980;2023-07-08T02:42:54;101662.94;;;17.88;60.21
69574;BME280;62840;52.366;5.980;2023-07-08T02:45:20;101665.94;;;17.85;60.25
69574;BME280;62840;52.366;5.980;2023-07-08T02:47:48;101662.56;;;17.83;59.83
69574;BME280;62840;52.366;5.980;2023-07-08T02:50:14;101667.25;;;17.81;60.10
69574;BME280;62840;52.366;5.980;2023-07-08T02:52:40;101657.63;;;17.79;59.88
69574;BME280;62840;52.366;5.980;2023-07-08T02:55:06;101658.06;;;17.74;60.24
69574;BME280;62840;52.366;5.980;2023-07-08T02:57:33;101656.50;;;17.71;60.20
69574;BME280;62840;52.366;5.980;2023-07-08T02:59:58;101656.81;;;17.68;60.13
69574;BME280;62840;52.366;5.980;2023-07-08T03:02:26;101654.56;;;17.64;60.41
69574;BME280;62840;52.366;5.980;2023-07-08T03:04:54;101648.66;;;17.60;60.27
69574;BME280;62840;52.366;5.980;2023-07-08T03:07:20;101650.66;;;17.58;60.37
69574;BME280;62840;52.366;5.980;2023-07-08T03:09:46;101646.94;;;17.59;60.32
69574;BME280;62840;52.366;5.980;2023-07-08T03:12:12;101657.72;;;17.59;60.84
69574;BME280;62840;52.366;5.980;2023-07-08T03:14:38;101659.72;;;17.57;60.47
69574;BME280;62840;52.366;5.980;2023-07-08T03:17:04;101643.53;;;17.57;60.14
69574;BME280;62840;52.366;5.980;2023-07-08T03:19:30;101643.84;;;17.54;60.30
69574;BME280;62840;52.366;5.980;2023-07-08T03:21:59;101645.53;;;17.55;60.16
69574;BME280;62840;52.366;5.980;2023-07-08T03:24:24;101647.56;;;17.53;60.11
69574;BME280;62840;52.366;5.980;2023-07-08T03:26:50;101660.03;;;17.54;60.58
69574;BME280;62840;52.366;5.980;2023-07-08T03:29:17;101654.97;;;17.51;60.50
69574;BME280;62840;52.366;5.980;2023-07-08T03:31:44;101654.25;;;17.49;60.38
69574;BME280;62840;52.366;5.980;2023-07-08T03:34:11;101658.78;;;17.48;60.39
69574;BME280;62840;52.366;5.980;2023-07-08T03:36:41;101660.63;;;17.48;60.53
69574;BME280;62840;52.366;5.980;2023-07-08T03:39:12;101653.56;;;17.47;60.63
69574;BME280;62840;52.366;5.980;2023-07-08T03:41:37;101655.56;;;17.45;60.54
69574;BME280;62840;52.366;5.980;2023-07-08T03:44:03;101655.00;;;17.41;60.19
69574;BME280;62840;52.366;5.980;2023-07-08T03:46:29;101653.59;;;17.37;60.88
69574;BME280;62840;52.366;5.980;2023-07-08T03:48:55;101663.88;;;17.34;60.77
69574;BME280;62840;52.366;5.980;2023-07-08T03:51:22;101658.75;;;17.30;60.80
69574;BME280;62840;52.366;5.980;2023-07-08T03:53:51;101660.78;;;17.28;60.88
69574;BME280;62840;52.366;5.980;2023-07-08T03:56:19;101664.47;;;17.27;61.20
69574;BME280;62840;52.366;5.980;2023-07-08T03:58:45;101666.47;;;17.25;61.35
69574;BME280;62840;52.366;5.980;2023-07-08T04:01:14;101664.78;;;17.24;61.40
69574;BME280;62840;52.366;5.980;2023-07-08T04:03:41;101670.31;;;17.23;61.45
69574;BME280;62840;52.366;5.980;2023-07-08T04:06:07;101674.84;;;17.22;61.65
69574;BME280;62840;52.366;5.980;2023-07-08T04:08:32;101669.31;;;17.24;61.24
69574;BME280;62840;52.366;5.980;2023-07-08T04:10:58;101668.44;;;17.23;61.31
69574;BME280;62840;52.366;5.980;2023-07-08T04:13:26;101666.78;;;17.22;61.40
69574;BME280;62840;52.366;5.980;2023-07-08T04:15:54;101663.38;;;17.20;61.71
69574;BME280;62840;52.366;5.980;2023-07-08T04:18:22;101664.34;;;17.19;61.26
69574;BME280;62840;52.366;5.980;2023-07-08T04:20:48;101668.75;;;17.20;61.48
69574;BME280;62840;52.366;5.980;2023-07-08T04:23:14;101665.38;;;17.18;61.69
69574;BME280;62840;52.366;5.980;2023-07-08T04:25:39;101671.59;;;17.19;61.82
69574;BME280;62840;52.366;5.980;2023-07-08T04:28:05;101668.91;;;17.19;61.82
69574;BME280;62840;52.366;5.980;2023-07-08T04:30:34;101671.47;;;17.20;61.54
69574;BME280;62840;52.366;5.980;2023-07-08T04:33:00;101679.22;;;17.23;61.85
69574;BME280;62840;52.366;5.980;2023-07-08T04:35:25;101679.22;;;17.23;61.78
69574;BME280;62840;52.366;5.980;2023-07-08T04:37:51;101679.22;;;17.23;61.91
69574;BME280;62840;52.366;5.980;2023-07-08T04:40:19;101675.69;;;17.23;61.78
69574;BME280;62840;52.366;5.980;2023-07-08T04:42:46;101680.94;;;17.24;61.42
69574;BME280;62840;52.366;5.980;2023-07-08T04:45:12;101675.56;;;17.24;61.63
69574;BME280;62840;52.366;5.980;2023-07-08T04:47:40;101673.69;;;17.25;61.91
69574;BME280;62840;52.366;5.980;2023-07-08T04:50:08;101678.09;;;17.26;61.80
69574;BME280;62840;52.366;5.980;2023-07-08T04:52:35;101675.25;;;17.27;62.02
69574;BME280;62840;52.366;5.980;2023-07-08T04:55:01;101676.97;;;17.28;62.08
69574;BME280;62840;52.366;5.980;2023-07-08T04:57:27;101670.56;;;17.29;61.96
69574;BME280;62840;52.366;5.980;2023-07-08T04:59:53;101669.53;;;17.30;62.04
69574;BME280;62840;52.366;5.980;2023-07-08T05:02:19;101667.53;;;17.33;61.69
69574;BME280;62840;52.366;5.980;2023-07-08T05:04:47;101670.94;;;17.35;61.84
69574;BME280;62840;52.366;5.980;2023-07-08T05:07:13;101669.78;;;17.37;61.74
69574;BME280;62840;52.366;5.980;2023-07-08T05:09:39;101669.66;;;17.39;62.14
69574;BME280;62840;52.366;5.980;2023-07-08T05:12:06;101673.19;;;17.39;61.78
69574;BME280;62840;52.366;5.980;2023-07-08T05:14:32;101679.13;;;17.43;61.96
69574;BME280;62840;52.366;5.980;2023-07-08T05:16:58;101677.97;;;17.45;61.96
69574;BME280;62840;52.366;5.980;2023-07-08T05:19:24;101675.97;;;17.47;62.15
69574;BME280;62840;52.366;5.980;2023-07-08T05:21:52;101681.06;;;17.50;62.17
69574;BME280;62840;52.366;5.980;2023-07-08T05:24:18;101678.22;;;17.52;62.09
69574;BME280;62840;52.366;5.980;2023-07-08T05:26:43;101667.13;;;17.55;62.13
69574;BME280;62840;52.366;5.980;2023-07-08T05:29:09;101666.84;;;17.58;61.58
69574;BME280;62840;52.366;5.980;2023-07-08T05:31:35;101666.50;;;17.61;61.70
69574;BME280;62840;52.366;5.980;2023-07-08T05:34:00;101669.59;;;17.66;61.86
69574;BME280;62840;52.366;5.980;2023-07-08T05:36:26;101658.50;;;17.69;61.74
69574;BME280;62840;52.366;5.980;2023-07-08T05:38:55;101667.00;;;17.75;61.93
69574;BME280;62840;52.366;5.980;2023-07-08T05:41:20;101663.00;;;17.79;61.76
69574;BME280;62840;52.366;5.980;2023-07-08T05:43:46;101657.31;;;17.82;61.61
69574;BME280;62840;52.366;5.980;2023-07-08T05:46:12;101660.41;;;17.87;61.68
69574;BME280;62840;52.366;5.980;2023-07-08T05:48:37;101659.75;;;17.93;62.01
69574;BME280;62840;52.366;5.980;2023-07-08T05:51:03;101660.16;;;17.98;61.51
69574;BME280;62840;52.366;5.980;2023-07-08T05:53:29;101659.69;;;18.03;61.52
69574;BME280;62840;52.366;5.980;2023-07-08T05:55:57;101658.22;;;18.08;61.63
69574;BME280;62840;52.366;5.980;2023-07-08T05:58:23;101663.28;;;18.11;61.99
69574;BME280;62840;52.366;5.980;2023-07-08T06:00:54;101651.88;;;18.18;61.44
69574;BME280;62840;52.366;5.980;2023-07-08T06:03:21;101647.84;;;18.22;61.50
69574;BME280;62840;52.366;5.980;2023-07-08T06:05:47;101644.69;;;18.26;61.56
69574;BME280;62840;52.366;5.980;2023-07-08T06:08:12;101645.91;;;18.32;61.42
69574;BME280;62840;52.366;5.980;2023-07-08T06:10:41;101650.84;;;18.37;61.58
69574;BME280;62840;52.366;5.980;2023-07-08T06:13:10;101646.66;;;18.42;61.84
69574;BME280;62840;52.366;5.980;2023-07-08T06:15:36;101647.00;;;18.47;61.42
69574;BME280;62840;52.366;5.980;2023-07-08T06:18:02;101642.84;;;18.53;61.35
69574;BME280;62840;52.366;5.980;2023-07-08T06:20:28;101644.03;;;18.59;61.49
69574;BME280;62840;52.366;5.980;2023-07-08T06:22:54;101646.44;;;18.62;61.25
69574;BME280;62840;52.366;5.980;2023-07-08T06:25:20;101639.53;;;18.67;61.42
69574;BME280;62840;52.366;5.980;2023-07-08T06:27:46;101647.03;;;18.73;61.17
69574;BME280;62840;52.366;5.980;2023-07-08T06:30:15;101645.53;;;18.79;61.35
69574;BME280;62840;52.366;5.980;2023-07-08T06:32:41;101646.91;;;18.83;61.14
69574;BME280;62840;52.366;5.980;2023-07-08T06:35:07;101647.28;;;18.88;60.97
69574;BME280;62840;52.366;5.980;2023-07-08T06:37:33;101646.81;;;18.93;61.01
69574;BME280;62840;52.366;5.980;2023-07-08T06:39:59;101647.00;;;19.00;60.63
69574;BME280;62840;52.366;5.980;2023-07-08T06:42:26;101642.63;;;19.07;60.84
69574;BME280;62840;52.366;5.980;2023-07-08T06:44:51;101642.00;;;19.13;60.84
69574;BME280;62840;52.366;5.980;2023-07-08T06:47:20;101650.09;;;19.21;60.64
69574;BME280;62840;52.366;5.980;2023-07-08T06:49:47;101653.16;;;19.26;60.24
69574;BME280;62840;52.366;5.980;2023-07-08T06:52:13;101646.41;;;19.30;60.55
69574;BME280;62840;52.366;5.980;2023-07-08T06:54:39;101651.31;;;19.35;60.01
69574;BME280;62840;52.366;5.980;2023-07-08T06:57:06;101638.66;;;19.44;60.25
69574;BME280;62840;52.366;5.980;2023-07-08T06:59:33;101646.81;;;19.52;60.39
69574;BME280;62840;52.366;5.980;2023-07-08T07:01:59;101645.47;;;19.56;60.02
69574;BME280;62840;52.366;5.980;2023-07-08T07:04:27;101637.56;;;19.63;60.21
69574;BME280;62840;52.366;5.980;2023-07-08T07:06:53;101643.16;;;19.69;59.78
69574;BME280;62840;52.366;5.980;2023-07-08T07:09:19;101641.63;;;19.75;59.66
69574;BME280;62840;52.366;5.980;2023-07-08T07:11:44;101643.84;;;19.79;59.73
69574;BME280;62840;52.366;5.980;2023-07-08T07:14:10;101651.97;;;19.88;59.97
69574;BME280;62840;52.366;5.980;2023-07-08T07:16:36;101650.44;;;19.93;60.13
69574;BME280;62840;52.366;5.980;2023-07-08T07:19:02;101650.59;;;20.00;59.75
69574;BME280;62840;52.366;5.980;2023-07-08T07:21:30;101644.53;;;20.06;59.84
69574;BME280;62840;52.366;5.980;2023-07-08T07:23:56;101642.13;;;20.11;59.25
69574;BME280;62840;52.366;5.980;2023-07-08T07:26:21;101650.59;;;20.16;59.18
69574;BME280;62840;52.366;5.980;2023-07-08T07:28:47;101653.66;;;20.21;59.40
69574;BME280;62840;52.366;5.980;2023-07-08T07:31:13;101654.66;;;20.29;58.94
69574;BME280;62840;52.366;5.980;2023-07-08T07:33:38;101654.81;;;20.35;58.41
69574;BME280;62840;52.366;5.980;2023-07-08T07:36:05;101646.19;;;20.40;58.36
69574;BME280;62840;52.366;5.980;2023-07-08T07:38:33;101643.81;;;20.45;58.27
69574;BME280;62840;52.366;5.980;2023-07-08T07:40:59;101642.78;;;20.54;58.27
69574;BME280;62840;52.366;5.980;2023-07-08T07:43:25;101637.50;;;20.61;58.36
69574;BME280;62840;52.366;5.980;2023-07-08T07:45:51;101637.66;;;20.68;58.39
69574;BME280;62840;52.366;5.980;2023-07-08T07:48:17;101645.78;;;20.76;58.27
69574;BME280;62840;52.366;5.980;2023-07-08T07:50:45;101641.34;;;20.83;58.39
69574;BME280;62840;52.366;5.980;2023-07-08T07:53:11;101642.34;;;20.90;58.12
69574;BME280;62840;52.366;5.980;2023-07-08T07:55:40;101645.03;;;20.98;58.44
69574;BME280;62840;52.366;5.980;2023-07-08T07:58:05;101643.47;;;21.04;57.93
69574;BME280;62840;52.366;5.980;2023-07-08T08:00:31;101636.50;;;21.10;58.24
69574;BME280;62840;52.366;5.980;2023-07-08T08:02:57;101641.22;;;21.16;57.66
69574;BME280;62840;52.366;5.980;2023-07-08T08:05:23;101638.81;;;21.21;57.71
69574;BME280;62840;52.366;5.980;2023-07-08T08:07:48;101630.69;;;21.29;57.46
69574;BME280;62840;52.366;5.980;2023-07-08T08:10:14;101630.78;;;21.36;56.90
69574;BME280;62840;52.366;5.980;2023-07-08T08:12:43;101640.91;;;21.42;57.09
69574;BME280;62840;52.366;5.980;2023-07-08T08:15:09;101636.47;;;21.49;56.55
69574;BME280;62840;52.366;5.980;2023-07-08T08:17:35;101635.59;;;21.57;56.95
69574;BME280;62840;52.366;5.980;2023-07-08T08:20:01;101637.38;;;21.64;56.84
69574;BME280;62840;52.366;5.980;2023-07-08T08:22:27;101634.78;;;21.71;56.55
69574;BME280;62840;52.366;5.980;2023-07-08T08:24:53;101622.00;;;21.80;56.59
69574;BME280;62840;52.366;5.980;2023-07-08T08:27:19;101635.31;;;21.90;56.79
69574;BME280;62840;52.366;5.980;2023-07-08T08:29:48;101630.66;;;21.98;56.67
69574;BME280;62840;52.366;5.980;2023-07-08T08:32:13;101629.59;;;22.07;56.40
69574;BME280;62840;52.366;5.980;2023-07-08T08:34:39;101627.00;;;22.14;55.79
69574;BME280;62840;52.366;5.980;2023-07-08T08:37:05;101630.66;;;22.21;55.71
69574;BME280;62840;52.366;5.980;2023-07-08T08:39:31;101629.09;;;22.27;55.01
69574;BME280;62840;52.366;5.980;2023-07-08T08:41:57;101622.03;;;22.33;55.44
69574;BME280;62840;52.366;5.980;2023-07-08T08:44:27;101620.47;;;22.38;55.32
69574;BME280;62840;52.366;5.980;2023-07-08T08:47:04;101624.31;;;22.44;55.42
69574;BME280;62840;52.366;5.980;2023-07-08T08:49:43;101622.72;;;22.49;55.52
69574;BME280;62840;52.366;5.980;2023-07-08T08:52:14;101626.22;;;22.58;55.06
69574;BME280;62840;52.366;5.980;2023-07-08T08:54:40;101626.31;;;22.65;54.94
69574;BME280;62840;52.366;5.980;2023-07-08T08:57:13;101633.50;;;22.73;54.90
69574;BME280;62840;52.366;5.980;2023-07-08T08:59:54;101629.41;;;22.77;54.81
69574;BME280;62840;52.366;5.980;2023-07-08T09:02:31;101626.63;;;22.85;54.88
69574;BME280;62840;52.366;5.980;2023-07-08T09:05:05;101630.91;;;22.94;54.36
69574;BME280;62840;52.366;5.980;2023-07-08T09:07:42;101631.84;;;23.01;54.06
69574;BME280;62840;52.366;5.980;2023-07-08T09:10:26;101631.75;;;23.09;54.28
69574;BME280;62840;52.366;5.980;2023-07-08T09:13:06;101631.59;;;23.18;54.22
69574;BME280;62840;52.366;5.980;2023-07-08T09:15:37;101641.75;;;23.24;53.55
69574;BME280;62840;52.366;5.980;2023-07-08T09:18:15;101629.88;;;23.31;53.93
69574;BME280;62840;52.366;5.980;2023-07-08T09:20:50;101633.34;;;23.40;54.08
69574;BME280;62840;52.366;5.980;2023-07-08T09:23:24;101638.31;;;23.51;53.74
69574;BME280;62840;52.366;5.980;2023-07-08T09:25:59;101640.91;;;23.60;53.37
69574;BME280;62840;52.366;5.980;2023-07-08T09:28:37;101632.63;;;23.68;53.31
69574;BME280;62840;52.366;5.980;2023-07-08T09:31:06;101631.00;;;23.73;53.01
69574;BME280;62840;52.366;5.980;2023-07-08T09:33:37;101627.28;;;23.81;53.44
69574;BME280;62840;52.366;5.980;2023-07-08T09:36:16;101636.16;;;23.90;52.91
69574;BME280;62840;52.366;5.980;2023-07-08T09:38:47;101631.63;;;23.97;52.91
69574;BME280;62840;52.366;5.980;2023-07-08T09:41:14;101628.75;;;24.05;53.12
69574;BME280;62840;52.366;5.980;2023-07-08T09:44:03;101632.19;;;24.14;52.81
69574;BME280;62840;52.366;5.980;2023-07-08T09:46:35;101625.97;;;24.20;52.85
69574;BME280;62840;52.366;5.980;2023-07-08T09:49:15;101624.97;;;24.28;52.21
69574;BME280;62840;52.366;5.980;2023-07-08T09:51:43;101622.28;;;24.34;52.67
69574;BME280;62840;52.366;5.980;2023-07-08T09:54:09;101624.88;;;24.43;52.26
69574;BME280;62840;52.366;5.980;2023-07-08T09:56:36;101632.03;;;24.50;52.36
69574;BME280;62840;52.366;5.980;2023-07-08T09:59:11;101641.31;;;24.56;51.71
69574;BME280;62840;52.366;5.980;2023-07-08T10:01:40;101645.97;;;24.62;52.02
69574;BME280;62840;52.366;5.980;2023-07-08T10:04:11;101652.69;;;24.66;51.96
69574;BME280;62840;52.366;5.980;2023-07-08T10:06:37;101646.44;;;24.72;51.84
69574;BME280;62840;52.366;5.980;2023-07-08T10:09:04;101649.41;;;24.77;51.64
69574;BME280;62840;52.366;5.980;2023-07-08T10:11:39;101633.06;;;24.84;51.29
69574;BME280;62840;52.366;5.980;2023-07-08T10:14:22;101636.94;;;24.90;51.68
69574;BME280;62840;52.366;5.980;2023-07-08T10:16:51;101639.69;;;24.96;51.12
69574;BME280;62840;52.366;5.980;2023-07-08T10:19:21;101639.72;;;25.03;51.13
69574;BME280;62840;52.366;5.980;2023-07-08T10:21:51;101631.56;;;25.10;51.61
69574;BME280;62840;52.366;5.980;2023-07-08T10:24:37;101633.25;;;25.17;51.50
69574;BME280;62840;52.366;5.980;2023-07-08T10:27:22;101635.81;;;25.26;50.98
69574;BME280;62840;52.366;5.980;2023-07-08T10:29:57;101628.69;;;25.31;51.19
69574;BME280;62840;52.366;5.980;2023-07-08T10:32:41;101632.25;;;25.38;50.63
69574;BME280;62840;52.366;5.980;2023-07-08T10:35:21;101627.88;;;25.44;50.84
69574;BME280;62840;52.366;5.980;2023-07-08T10:38:06;101630.81;;;25.49;50.88
69574;BME280;62840;52.366;5.980;2023-07-08T10:40:54;101631.69;;;25.56;50.71
69574;BME280;62840;52.366;5.980;2023-07-08T10:43:34;101621.63;;;25.64;50.18
69574;BME280;62840;52.366;5.980;2023-07-08T10:46:30;101629.44;;;25.73;50.22
69574;BME280;62840;52.366;5.980;2023-07-08T10:52:26;101626.91;;;25.85;49.70
69574;BME280;62840;52.366;5.980;2023-07-08T10:55:18;101629.66;;;25.92;49.55
69574;BME280;62840;52.366;5.980;2023-07-08T10:58:03;101631.31;;;25.99;49.52
69574;BME280;62840;52.366;5.980;2023-07-08T11:00:50;101626.72;;;26.07;49.77
69574;BME280;62840;52.366;5.980;2023-07-08T11:03:35;101617.44;;;26.14;49.74
69574;BME280;62840;52.366;5.980;2023-07-08T11:06:18;101622.94;;;26.21;49.50
69574;BME280;62840;52.366;5.980;2023-07-08T11:08:55;101625.47;;;26.29;48.93
69574;BME280;62840;52.366;5.980;2023-07-08T11:11:29;101620.81;;;26.36;48.89
69574;BME280;62840;52.366;5.980;2023-07-08T11:14:05;101619.13;;;26.42;49.14
69574;BME280;62840;52.366;5.980;2023-07-08T11:16:41;101608.16;;;26.49;49.30
69574;BME280;62840;52.366;5.980;2023-07-08T11:19:15;101614.88;;;26.53;48.87
69574;BME280;62840;52.366;5.980;2023-07-08T11:21:47;101610.69;;;26.57;48.95
69574;BME280;62840;52.366;5.980;2023-07-08T11:24:24;101611.50;;;26.64;48.65
69574;BME280;62840;52.366;5.980;2023-07-08T11:27:00;101606.81;;;26.71;48.71
69574;BME280;62840;52.366;5.980;2023-07-08T11:29:36;101607.66;;;26.78;48.18
69574;BME280;62840;52.366;5.980;2023-07-08T11:32:08;101598.59;;;26.85;48.48
69574;BME280;62840;52.366;5.980;2023-07-08T11:34:41;101595.00;;;26.91;48.10
69574;BME280;62840;52.366;5.980;2023-07-08T11:37:10;101595.81;;;26.98;47.76
69574;BME280;62840;52.366;5.980;2023-07-08T11:39:43;101601.25;;;27.05;46.99
69574;BME280;62840;52.366;5.980;2023-07-08T11:42:17;101599.56;;;27.10;46.88
69574;BME280;62840;52.366;5.980;2023-07-08T11:44:49;101601.63;;;27.15;47.13
69574;BME280;62840;52.366;5.980;2023-07-08T11:47:20;101607.50;;;27.18;46.94
69574;BME280;62840;52.366;5.980;2023-07-08T11:49:52;101608.75;;;27.22;46.24
69574;BME280;62840;52.366;5.980;2023-07-08T11:52:20;101606.19;;;27.28;46.31
69574;BME280;62840;52.366;5.980;2023-07-08T11:54:57;101606.97;;;27.35;45.77
69574;BME280;62840;52.366;5.980;2023-07-08T11:57:29;101604.44;;;27.40;46.22
69574;BME280;62840;52.366;5.980;2023-07-08T12:00:17;101595.97;;;27.48;45.46
69574;BME280;62840;52.366;5.980;2023-07-08T12:02:49;101590.91;;;27.52;45.55
69574;BME280;62840;52.366;5.980;2023-07-08T12:05:17;101588.09;;;27.58;45.02
69574;BME280;62840;52.366;5.980;2023-07-08T12:07:56;101579.00;;;27.64;44.64
69574;BME280;62840;52.366;5.980;2023-07-08T12:10:27;101576.44;;;27.70;44.25
69574;BME280;62840;52.366;5.980;2023-07-08T12:12:57;101575.53;;;27.76;44.31
69574;BME280;62840;52.366;5.980;2023-07-08T12:15:24;101591.06;;;27.82;44.63
69574;BME280;62840;52.366;5.980;2023-07-08T12:17:54;101579.22;;;27.88;44.69
69574;BME280;62840;52.366;5.980;2023-07-08T12:20:26;101582.13;;;27.93;44.34
69574;BME280;62840;52.366;5.980;2023-07-08T12:22:53;101586.72;;;27.99;44.42
69574;BME280;62840;52.366;5.980;2023-07-08T12:25:26;101590.22;;;28.06;44.58
69574;BME280;62840;52.366;5.980;2023-07-08T12:27:53;101587.22;;;28.15;44.42
69574;BME280;62840;52.366;5.980;2023-07-08T12:30:19;101582.53;;;28.22;44.04
69574;BME280;62840;52.366;5.980;2023-07-08T12:32:45;101582.66;;;28.27;43.78
69574;BME280;62840;52.366;5.980;2023-07-08T12:35:19;101588.56;;;28.31;43.61
69574;BME280;62840;52.366;5.980;2023-07-08T12:37:48;101578.81;;;28.35;43.44
69574;BME280;62840;52.366;5.980;2023-07-08T12:40:15;101582.78;;;28.39;43.51
69574;BME280;62840;52.366;5.980;2023-07-08T12:42:44;101578.25;;;28.44;43.08
69574;BME280;62840;52.366;5.980;2023-07-08T12:45:15;101573.78;;;28.50;43.91
69574;BME280;62840;52.366;5.980;2023-07-08T12:47:43;101581.94;;;28.57;43.52
69574;BME280;62840;52.366;5.980;2023-07-08T12:50:11;101583.75;;;28.63;43.93
69574;BME280;62840;52.366;5.980;2023-07-08T12:52:38;101579.28;;;28.68;43.32
69574;BME280;62840;52.366;5.980;2023-07-08T12:55:05;101577.53;;;28.74;42.75
69574;BME280;62840;52.366;5.980;2023-07-08T12:57:34;101572.41;;;28.78;42.92
69574;BME280;62840;52.366;5.980;2023-07-08T13:00:04;101571.13;;;28.80;43.08
69574;BME280;62840;52.366;5.980;2023-07-08T13:02:32;101576.75;;;28.85;42.97
69574;BME280;62840;52.366;5.980;2023-07-08T13:05:00;101576.91;;;28.91;42.83